createdAt,value
2022-10-13T00:04:04.030Z,6.90
2022-10-13T00:09:07.648Z,6.57
2022-10-13T00:14:11.235Z,6.00
2022-10-13T00:19:16.273Z,6.30
2022-10-13T00:24:19.883Z,7.27
2022-10-13T00:29:23.516Z,6.83
2022-10-13T00:34:28.545Z,7.17
2022-10-13T00:39:32.083Z,6.50
2022-10-13T00:45:01.864Z,5.73
2022-10-13T00:50:10.466Z,6.53
2022-10-13T00:55:18.165Z,5.70
2022-10-13T01:00:21.891Z,6.53
2022-10-13T01:05:27.198Z,6.80
2022-10-13T01:10:42.297Z,5.80
2022-10-13T01:15:51.845Z,5.47
2022-10-13T01:21:07.713Z,6.17
2022-10-13T01:26:26.093Z,5.90
2022-10-13T01:31:38.394Z,6.10
2022-10-13T01:36:48.553Z,6.00
2022-10-13T01:41:55.870Z,5.17
2022-10-13T01:47:02.674Z,5.40
2022-10-13T01:52:10.253Z,5.20
2022-10-13T01:57:32.026Z,5.97
2022-10-13T02:02:45.669Z,5.53
2022-10-13T02:07:55.883Z,6.17
2022-10-13T02:13:02.791Z,5.67
2022-10-13T02:18:10.095Z,6.47
2022-10-13T02:23:16.563Z,5.63
2022-10-13T02:28:20.844Z,5.50
2022-10-13T02:33:25.825Z,5.70
2022-10-13T02:38:29.270Z,5.47
2022-10-13T02:43:34.091Z,5.87
2022-10-13T02:48:39.128Z,5.57
2022-10-13T02:53:42.558Z,5.53
2022-10-13T02:58:46.140Z,5.17
2022-10-13T03:03:51.098Z,5.47
2022-10-13T03:08:54.822Z,5.53
2022-10-13T03:13:58.354Z,6.10
2022-10-13T03:19:03.246Z,6.30
2022-10-13T03:24:07.139Z,6.07
2022-10-13T03:29:15.097Z,5.43
2022-10-13T03:34:20.859Z,5.53
2022-10-13T03:39:24.333Z,5.07
2022-10-13T03:44:27.819Z,5.70
2022-10-13T03:49:32.740Z,5.63
2022-10-13T03:54:36.249Z,6.20
2022-10-13T03:59:41.112Z,5.77
2022-10-13T04:04:46.043Z,5.67
2022-10-13T04:09:49.464Z,5.50
2022-10-13T04:14:52.823Z,5.77
2022-10-13T04:19:57.682Z,6.93
2022-10-13T04:25:01.133Z,6.33
2022-10-13T04:30:05.354Z,6.27
2022-10-13T04:35:10.567Z,6.60
2022-10-13T04:40:14.386Z,6.10
2022-10-13T04:45:18.101Z,6.00
2022-10-13T04:50:23.091Z,5.27
2022-10-13T04:55:26.603Z,5.63
2022-10-13T05:00:30.152Z,5.70
2022-10-13T05:05:36.985Z,5.60
2022-10-13T05:10:40.394Z,5.47
2022-10-13T05:15:43.839Z,5.47
2022-10-13T05:20:48.747Z,5.77
2022-10-13T05:25:52.360Z,7.83
2022-10-13T05:30:55.789Z,5.77
2022-10-13T05:36:07.310Z,5.23
2022-10-13T05:41:14.110Z,5.87
2022-10-13T05:46:17.604Z,6.17
2022-10-13T05:51:25.726Z,6.10
2022-10-13T05:56:34.697Z,6.30
2022-10-13T06:01:40.332Z,6.33
2022-10-13T06:06:45.434Z,5.67
2022-10-13T06:11:50.391Z,6.33
2022-10-13T06:16:53.774Z,6.57
2022-10-13T06:22:03.255Z,5.90
2022-10-13T06:27:07.145Z,6.90
2022-10-13T06:32:10.557Z,5.77
2022-10-13T06:37:15.405Z,5.43
2022-10-13T06:42:19.090Z,5.20
2022-10-13T06:47:22.759Z,7.80
2022-10-13T06:52:27.749Z,6.37
2022-10-13T06:57:31.197Z,7.00
2022-10-13T07:02:34.937Z,6.60
2022-10-13T07:07:39.805Z,6.57
2022-10-13T07:12:43.214Z,7.00
2022-10-13T07:17:46.726Z,6.00
2022-10-13T07:22:51.789Z,6.10
2022-10-13T07:27:55.357Z,7.30
2022-10-13T07:33:00.274Z,6.27
2022-10-13T07:38:05.209Z,6.40
2022-10-13T07:43:08.659Z,7.70
2022-10-13T07:48:12.607Z,7.70
2022-10-13T07:53:17.712Z,7.53
2022-10-13T07:58:21.127Z,7.70
2022-10-13T08:03:24.549Z,7.23
2022-10-13T08:08:30.090Z,6.53
2022-10-13T08:13:34.038Z,7.70
2022-10-13T08:18:37.515Z,6.67
2022-10-13T08:23:42.380Z,6.73
2022-10-13T08:29:02.831Z,6.70
2022-10-13T08:34:09.891Z,6.30
2022-10-13T08:39:15.030Z,5.67
2022-10-13T08:49:48.326Z,4.70
2022-10-13T08:54:56.347Z,4.37
2022-10-13T08:59:59.798Z,4.23
2022-10-13T09:05:04.694Z,4.63
2022-10-13T09:10:11.611Z,4.23
2022-10-13T09:15:15.746Z,3.73
2022-10-13T09:20:23.163Z,3.90
2022-10-13T09:25:28.093Z,3.70
2022-10-13T09:30:35.220Z,4.17
2022-10-13T09:35:40.517Z,3.67
2022-10-13T09:40:57.508Z,4.07
2022-10-13T09:46:02.524Z,3.67
2022-10-13T09:51:06.154Z,3.57
2022-10-13T09:56:19.732Z,3.83
2022-10-13T10:01:29.394Z,4.23
2022-10-13T10:06:32.937Z,2.83
2022-10-13T16:33:11.358Z,3.50
2022-10-13T16:38:16.314Z,3.57
2022-10-13T16:43:19.674Z,3.37
2022-10-13T16:48:23.346Z,4.40
2022-10-13T16:53:28.251Z,3.50
2022-10-13T16:58:33.087Z,3.60
2022-10-13T17:03:36.772Z,4.03
2022-10-13T17:08:42.288Z,4.00
2022-10-13T17:13:45.912Z,4.20
2022-10-13T17:18:49.546Z,4.17
2022-10-13T17:23:57.224Z,4.60
2022-10-13T17:29:01.959Z,4.60
2022-10-13T17:34:06.731Z,4.67
2022-10-13T17:39:14.270Z,4.87
2022-10-13T17:44:21.451Z,6.57
2022-10-13T17:49:26.300Z,5.97
2022-10-13T17:54:32.660Z,5.70
2022-10-13T17:59:37.558Z,5.10
2022-10-13T18:04:42.033Z,4.83
2022-10-13T18:09:54.865Z,5.50
2022-10-13T18:14:59.345Z,5.87
2022-10-13T18:20:10.639Z,5.77
2022-10-13T18:25:19.707Z,5.40
2022-10-13T18:30:25.097Z,6.20
2022-10-13T18:35:32.330Z,6.27
2022-10-13T18:40:38.857Z,6.53
2022-10-13T18:45:45.449Z,6.27
2022-10-13T18:50:49.952Z,6.67
2022-10-13T18:56:04.378Z,6.80
2022-10-13T19:01:11.633Z,6.60
2022-10-13T19:06:18.020Z,6.33
2022-10-13T19:11:25.364Z,6.70
2022-10-13T19:16:32.193Z,7.73
2022-10-13T19:21:37.125Z,6.47
2022-10-13T19:27:04.835Z,7.20
2022-10-13T19:32:13.299Z,5.10
2022-10-13T19:37:21.613Z,1.80
2022-10-13T19:42:28.333Z,2.10
2022-10-13T19:47:36.771Z,1.70
2022-10-13T19:52:42.150Z,1.80
2022-10-13T19:57:48.688Z,1.80
2022-10-13T20:02:53.413Z,1.67
2022-10-13T20:08:00.567Z,1.20
2022-10-13T20:13:06.221Z,1.10
2022-10-13T20:18:10.413Z,1.27
2022-10-13T20:23:17.165Z,1.37
2022-10-13T20:28:22.631Z,1.30
2022-10-13T20:33:26.535Z,1.57
2022-10-13T20:38:31.406Z,1.80
2022-10-13T20:43:37.272Z,2.10
2022-10-13T20:49:09.453Z,1.87
2022-10-13T20:54:06.717Z,2.87
2022-10-13T20:59:14.804Z,2.43
2022-10-13T21:04:18.471Z,1.87
2022-10-13T21:09:22.393Z,2.30
2022-10-13T21:14:29.147Z,2.30
2022-10-13T21:19:37.749Z,1.90
2022-10-13T21:24:42.949Z,2.63
2022-10-13T21:29:50.027Z,2.07
2022-10-13T21:34:54.298Z,2.23
2022-10-13T21:39:57.769Z,2.00
2022-10-13T21:45:03.108Z,1.90
2022-10-13T21:50:07.367Z,1.80
2022-10-13T21:55:11.567Z,1.57
2022-10-13T22:00:24.780Z,1.60
2022-10-13T22:05:28.382Z,1.50
2022-10-13T22:10:31.907Z,1.30
2022-10-13T22:15:37.305Z,1.40
2022-10-13T22:20:40.837Z,1.30
2022-10-13T22:25:47.688Z,1.33
2022-10-13T22:36:23.809Z,1.37
2022-10-13T22:41:27.986Z,1.63
2022-10-13T22:46:34.990Z,2.10
2022-10-13T22:51:38.870Z,1.40
2022-10-13T22:56:43.340Z,1.43
2022-10-13T23:01:48.465Z,1.60
2022-10-13T23:06:51.980Z,1.50
2022-10-13T23:11:59.650Z,1.67
2022-10-13T23:17:04.948Z,1.60
2022-10-13T23:22:08.491Z,1.70
2022-10-13T23:27:12.022Z,1.40
2022-10-13T23:32:17.032Z,1.67
2022-10-13T23:37:20.785Z,1.20
2022-10-13T23:42:24.537Z,1.50
2022-10-13T23:47:29.485Z,1.30
2022-10-13T23:52:33.096Z,1.30
2022-10-13T23:57:36.610Z,1.53
